Time;durP1;ratioP1;P1;durP2;ratioP2;P2;SDS_P1;SDS_P2;PMS_P1;PMS_P2;Temp;Humidity;BMP_temperature;BMP_pressure;BME280_temperature;BME280_humidity;BME280_pressure;Samples;Min_cycle;Max_cycle;Signal;HPM_P1;HPM_P2
2022/11/19 00:00:44;;;;;;;;;;;1.40;99.90;;;;;;5090908;27;19966;-64
2022/11/19 00:03:13;;;;;;;;;;;1.40;99.90;;;;;;5093284;27;21153;-65
2022/11/19 00:05:40;;;;;;;;;;;1.40;99.90;;;;;;5093283;27;19920;-65
2022/11/19 00:08:06;;;;;;;;;;;1.30;99.90;;;;;;5095239;28;19920;-65
2022/11/19 00:10:32;;;;;;;;;;;1.30;99.90;;;;;;5128477;27;19931;-64
2022/11/19 00:12:58;;;;;;;;;;;1.30;99.90;;;;;;5089660;28;19920;-65
2022/11/19 00:15:23;;;;;;;;;;;1.30;99.90;;;;;;5098922;28;19931;-65
2022/11/19 00:17:49;;;;;;;;;;;1.30;99.90;;;;;;5095301;27;20313;-64
2022/11/19 00:20:16;;;;;;;;;;;1.30;99.90;;;;;;5092456;28;19946;-65
2022/11/19 00:22:42;;;;;;;;;;;1.20;99.90;;;;;;5095077;27;19930;-65
2022/11/19 00:25:08;;;;;;;;;;;1.20;99.90;;;;;;5098102;28;19920;-65
2022/11/19 00:27:33;;;;;;;;;;;1.10;99.90;;;;;;5092734;28;19924;-65
2022/11/19 00:29:59;;;;;;;;;;;1.20;99.90;;;;;;5094950;27;20480;-63
2022/11/19 00:32:24;;;;;;;;;;;1.10;99.90;;;;;;5093744;27;19928;-65
2022/11/19 00:34:49;;;;;;;;;;;1.10;99.90;;;;;;5093265;28;20003;-64
2022/11/19 00:37:15;;;;;;;;;;;1.10;99.90;;;;;;5093484;27;19924;-64
2022/11/19 00:39:40;;;;;;;;;;;1.20;99.90;;;;;;5096937;28;19920;-64
2022/11/19 00:42:06;;;;;;;;;;;1.10;99.90;;;;;;5090710;27;20403;-63
2022/11/19 00:44:31;;;;;;;;;;;1.10;99.90;;;;;;5091726;28;19928;-66
2022/11/19 00:46:57;;;;;;;;;;;1.20;99.90;;;;;;5093565;28;20382;-65
2022/11/19 00:49:22;;;;;;;;;;;1.20;99.90;;;;;;5094032;27;19924;-64
2022/11/19 00:51:48;;;;;;;;;;;1.20;99.90;;;;;;5091472;27;20422;-65
2022/11/19 00:54:13;;;;;;;;;;;1.20;99.90;;;;;;5095792;27;19919;-65
2022/11/19 00:56:39;;;;;;;;;;;1.20;99.90;;;;;;5094847;27;19927;-64
2022/11/19 00:59:04;;;;;;;;;;;1.20;99.90;;;;;;5094126;28;19924;-65
2022/11/19 01:01:30;;;;;;;;;;;1.20;99.90;;;;;;5089916;28;19920;-66
2022/11/19 01:03:55;;;;;;;;;;;1.20;99.90;;;;;;5129788;27;19924;-65
2022/11/19 01:06:23;;;;;;;;;;;1.20;99.90;;;;;;5093638;27;20366;-64
2022/11/19 01:08:49;;;;;;;;;;;1.20;99.90;;;;;;5096227;28;19928;-64
2022/11/19 01:11:17;;;;;;;;;;;1.20;99.90;;;;;;5090351;28;19977;-65
2022/11/19 01:13:42;;;;;;;;;;;1.20;99.90;;;;;;5095429;28;20609;-65
2022/11/19 01:16:10;;;;;;;;;;;1.20;99.90;;;;;;5091275;28;19930;-64
2022/11/19 01:18:36;;;;;;;;;;;1.20;99.90;;;;;;5127301;27;19924;-64
2022/11/19 01:21:02;;;;;;;;;;;1.20;99.90;;;;;;5113283;27;19928;-63
2022/11/19 01:23:27;;;;;;;;;;;1.20;99.90;;;;;;5091943;28;19920;-63
2022/11/19 01:25:53;;;;;;;;;;;1.20;99.90;;;;;;5093253;28;20378;-64
2022/11/19 01:28:18;;;;;;;;;;;1.20;99.90;;;;;;5091152;28;19928;-64
2022/11/19 01:30:44;;;;;;;;;;;1.20;99.90;;;;;;5123041;27;20018;-63
2022/11/19 01:33:10;;;;;;;;;;;1.10;99.90;;;;;;5124700;27;20366;-64
2022/11/19 01:35:35;;;;;;;;;;;1.10;99.90;;;;;;5088742;28;19924;-63
2022/11/19 01:38:01;;;;;;;;;;;1.10;99.90;;;;;;5123771;27;19935;-64
2022/11/19 01:40:27;;;;;;;;;;;1.10;99.90;;;;;;5090984;28;19926;-65
2022/11/19 01:42:52;;;;;;;;;;;1.10;99.90;;;;;;5121832;27;19942;-65
2022/11/19 01:45:33;;;;;;;;;;;1.00;99.90;;;;;;5094628;28;19973;-64
2022/11/19 01:48:02;;;;;;;;;;;1.10;99.90;;;;;;5093118;28;19926;-65
2022/11/19 01:50:29;;;;;;;;;;;1.10;99.90;;;;;;5089197;28;19920;-65
2022/11/19 01:52:55;;;;;;;;;;;1.00;99.90;;;;;;5122293;27;20094;-65
2022/11/19 01:55:21;;;;;;;;;;;1.00;99.90;;;;;;5093297;28;19972;-62
2022/11/19 01:57:50;;;;;;;;;;;1.00;99.90;;;;;;5092686;28;20356;-64
2022/11/19 02:00:16;;;;;;;;;;;1.00;99.90;;;;;;5093213;28;19928;-63
2022/11/19 02:02:41;;;;;;;;;;;1.00;99.90;;;;;;5091620;28;19927;-67
2022/11/19 02:05:07;;;;;;;;;;;1.00;99.90;;;;;;5094079;28;19919;-65
2022/11/19 02:07:33;;;;;;;;;;;1.00;99.90;;;;;;5095436;27;19927;-64
2022/11/19 02:10:00;;;;;;;;;;;0.90;99.90;;;;;;5081677;28;19928;-64
2022/11/19 02:12:44;;;;;;;;;;;0.90;99.90;;;;;;5111119;27;19920;-65
2022/11/19 02:15:14;;;;;;;;;;;0.90;99.90;;;;;;5098377;27;19936;-64
2022/11/19 02:17:57;;;;;;;;;;;0.90;99.90;;;;;;5108418;27;19989;-64
2022/11/19 02:20:29;;;;;;;;;;;0.90;99.90;;;;;;5107620;27;20632;-64
2022/11/19 02:23:06;;;;;;;;;;;0.90;99.90;;;;;;5074956;28;20282;-64
2022/11/19 02:25:38;;;;;;;;;;;0.90;99.90;;;;;;5071292;28;19924;-65
2022/11/19 02:28:06;;;;;;;;;;;0.90;99.90;;;;;;5112089;27;20399;-64
2022/11/19 02:30:35;;;;;;;;;;;0.90;99.90;;;;;;5079256;28;19923;-63
2022/11/19 02:33:04;;;;;;;;;;;0.90;99.90;;;;;;5080644;28;19924;-64
2022/11/19 02:35:36;;;;;;;;;;;0.80;99.90;;;;;;5082356;27;19927;-63
2022/11/19 02:38:05;;;;;;;;;;;0.90;99.90;;;;;;5076448;28;20031;-64
2022/11/19 02:40:42;;;;;;;;;;;0.80;99.90;;;;;;5077414;28;19973;-64
2022/11/19 02:43:26;;;;;;;;;;;0.80;99.90;;;;;;5078775;28;20017;-64
2022/11/19 02:45:54;;;;;;;;;;;0.70;99.90;;;;;;5096823;27;20286;-64
2022/11/19 02:48:19;;;;;;;;;;;0.70;99.90;;;;;;5073048;28;19920;-64
2022/11/19 02:50:47;;;;;;;;;;;0.70;99.90;;;;;;5076074;28;20412;-65
2022/11/19 02:53:13;;;;;;;;;;;0.70;99.90;;;;;;5073616;28;19928;-64
2022/11/19 02:55:39;;;;;;;;;;;0.60;99.90;;;;;;5076027;28;19931;-65
2022/11/19 02:58:09;;;;;;;;;;;0.60;99.90;;;;;;5076475;28;20019;-64
2022/11/19 03:06:31;;;;;;;;;;;0.40;99.90;;;;;;5071665;28;19926;-64
2022/11/19 03:08:57;;;;;;;;;;;0.40;99.90;;;;;;5089600;28;19920;-63
2022/11/19 03:11:26;;;;;;;;;;;0.40;99.90;;;;;;5097385;28;20283;-64
2022/11/19 03:16:57;;;;;;;;;;;0.30;99.90;;;;;;5092314;28;19927;-65
2022/11/19 03:19:23;;;;;;;;;;;0.30;99.90;;;;;;5092619;28;19924;-64
2022/11/19 03:21:53;;;;;;;;;;;0.20;99.90;;;;;;5093477;28;19930;-64
2022/11/19 03:24:26;;;;;;;;;;;0.20;99.90;;;;;;5094798;28;20392;-65
2022/11/19 03:27:00;;;;;;;;;;;0.10;99.90;;;;;;5090577;28;19927;-64
2022/11/19 03:29:27;;;;;;;;;;;0.10;99.90;;;;;;5125742;27;19920;-64
2022/11/19 03:31:57;;;;;;;;;;;0.00;99.90;;;;;;5124781;27;19920;-64
2022/11/19 03:34:25;;;;;;;;;;;0.00;99.90;;;;;;5127237;27;19932;-63
2022/11/19 03:36:52;;;;;;;;;;;-0.10;99.90;;;;;;5090739;28;19950;-65
2022/11/19 03:39:19;;;;;;;;;;;-0.10;99.90;;;;;;5126102;27;19924;-65
2022/11/19 03:41:46;;;;;;;;;;;-0.10;99.90;;;;;;5122290;27;20286;-64
2022/11/19 03:44:17;;;;;;;;;;;-0.10;99.90;;;;;;5090790;28;20012;-62
2022/11/19 03:46:44;;;;;;;;;;;-0.10;99.90;;;;;;5091350;28;20030;-64
2022/11/19 03:49:10;;;;;;;;;;;-0.20;99.90;;;;;;5125702;27;19924;-65
2022/11/19 03:51:45;;;;;;;;;;;-0.20;99.90;;;;;;5092793;28;20431;-65
2022/11/19 03:54:11;;;;;;;;;;;-0.20;99.90;;;;;;5091031;28;19916;-64
2022/11/19 03:56:37;;;;;;;;;;;-0.20;99.90;;;;;;5095280;28;19928;-64
2022/11/19 03:59:03;;;;;;;;;;;-0.20;99.90;;;;;;5123554;27;19932;-63
2022/11/19 04:01:30;;;;;;;;;;;-0.30;99.90;;;;;;5124762;27;20373;-66
2022/11/19 04:06:39;;;;;;;;;;;-0.40;99.90;;;;;;5128123;27;19927;-64
2022/11/19 04:09:05;;;;;;;;;;;-0.40;99.90;;;;;;5034542;28;1730488;-65
2022/11/19 04:11:30;;;;;;;;;;;-0.40;99.90;;;;;;5130024;27;19984;-64
2022/11/19 04:13:55;;;;;;;;;;;-0.40;99.90;;;;;;5099130;27;19926;-64
2022/11/19 04:16:21;;;;;;;;;;;-0.50;99.90;;;;;;5098546;28;19971;-65
2022/11/19 04:18:46;;;;;;;;;;;-0.40;99.90;;;;;;5128191;27;20374;-65
2022/11/19 04:21:12;;;;;;;;;;;-0.50;99.90;;;;;;5095790;27;19923;-63
2022/11/19 04:23:37;;;;;;;;;;;-0.60;99.90;;;;;;5095386;27;19924;-63
2022/11/19 04:26:03;;;;;;;;;;;-0.60;99.90;;;;;;5099499;27;19949;-64
2022/11/19 04:28:28;;;;;;;;;;;-0.60;99.90;;;;;;5095623;28;19959;-65
2022/11/19 04:30:54;;;;;;;;;;;-0.60;99.90;;;;;;5097893;27;20018;-64
2022/11/19 04:33:19;;;;;;;;;;;-0.60;99.90;;;;;;5103365;28;20214;-64
2022/11/19 04:35:45;;;;;;;;;;;-0.70;99.90;;;;;;5097093;27;20007;-64
2022/11/19 04:38:10;;;;;;;;;;;-0.70;99.90;;;;;;5130200;27;19928;-64
2022/11/19 04:40:37;;;;;;;;;;;-0.70;99.90;;;;;;5080350;28;19928;-65
2022/11/19 04:43:03;;;;;;;;;;;-0.70;99.90;;;;;;5095448;27;20002;-63
2022/11/19 04:45:28;;;;;;;;;;;-0.80;99.90;;;;;;5105822;28;20441;-63
2022/11/19 04:47:54;;;;;;;;;;;-0.80;99.90;;;;;;5101099;28;20372;-64
2022/11/19 04:50:19;;;;;;;;;;;-0.80;99.90;;;;;;5108554;27;20215;-64
2022/11/19 04:52:45;;;;;;;;;;;-0.80;99.90;;;;;;5095049;28;19947;-64
2022/11/19 04:55:10;;;;;;;;;;;-0.80;99.90;;;;;;5110929;28;19920;-63
2022/11/19 04:57:36;;;;;;;;;;;-0.80;99.90;;;;;;5105191;28;20439;-63
2022/11/19 05:00:01;;;;;;;;;;;-0.90;99.90;;;;;;5108510;28;19965;-63
2022/11/19 05:02:27;;;;;;;;;;;-0.90;99.90;;;;;;5097536;28;19967;-63
2022/11/19 05:04:52;;;;;;;;;;;-0.90;99.90;;;;;;5124325;27;19923;-64
2022/11/19 05:07:18;;;;;;;;;;;-0.90;99.90;;;;;;5105976;28;19919;-63
2022/11/19 05:09:43;;;;;;;;;;;-0.90;99.90;;;;;;5091227;28;19920;-64
2022/11/19 05:12:09;;;;;;;;;;;-1.00;99.90;;;;;;5096857;27;19944;-65
2022/11/19 05:14:37;;;;;;;;;;;-1.00;99.90;;;;;;5104992;28;20283;-64
2022/11/19 05:17:03;;;;;;;;;;;-1.00;99.90;;;;;;5107250;28;20016;-63
2022/11/19 05:19:28;;;;;;;;;;;-1.00;99.90;;;;;;5093779;28;20032;-64
2022/11/19 05:21:53;;;;;;;;;;;-1.10;99.90;;;;;;5104336;28;19920;-64
2022/11/19 05:24:19;;;;;;;;;;;-1.10;99.90;;;;;;5097445;28;20023;-64
2022/11/19 05:26:45;;;;;;;;;;;-1.10;99.90;;;;;;5098079;28;19927;-63
2022/11/19 05:29:10;;;;;;;;;;;-1.10;99.90;;;;;;5098589;28;19920;-65
2022/11/19 05:31:36;;;;;;;;;;;-1.10;99.90;;;;;;5104314;28;20164;-64
2022/11/19 05:34:01;;;;;;;;;;;-1.20;99.90;;;;;;5099450;27;19927;-65
2022/11/19 05:36:27;;;;;;;;;;;-1.20;99.90;;;;;;5140934;27;19927;-64
2022/11/19 05:38:52;;;;;;;;;;;-1.20;99.90;;;;;;5098519;28;20014;-63
2022/11/19 05:41:18;;;;;;;;;;;-1.20;99.90;;;;;;5093256;28;19931;-64
2022/11/19 05:43:43;;;;;;;;;;;-1.20;99.90;;;;;;5091480;28;19924;-64
2022/11/19 05:46:08;;;;;;;;;;;-1.20;99.90;;;;;;5084266;28;19919;-64
2022/11/19 05:48:34;;;;;;;;;;;-1.20;99.90;;;;;;5096827;28;19978;-64
2022/11/19 05:50:59;;;;;;;;;;;-1.30;99.90;;;;;;5076349;28;20398;-64
2022/11/19 05:53:25;;;;;;;;;;;-1.30;99.90;;;;;;5098200;28;20386;-63
2022/11/19 05:55:50;;;;;;;;;;;-1.30;99.90;;;;;;5095904;28;19977;-64
2022/11/19 05:58:16;;;;;;;;;;;-1.30;99.90;;;;;;5093918;28;19928;-63
2022/11/19 06:00:41;;;;;;;;;;;-1.30;99.90;;;;;;5087833;28;19965;-64
2022/11/19 06:03:07;;;;;;;;;;;-1.30;99.90;;;;;;5102137;28;20426;-64
2022/11/19 06:05:33;;;;;;;;;;;-1.30;99.90;;;;;;5089012;28;20293;-64
2022/11/19 06:07:58;;;;;;;;;;;-1.30;99.90;;;;;;5095958;28;20011;-63
2022/11/19 06:10:24;;;;;;;;;;;-1.20;99.90;;;;;;5093384;28;19927;-63
2022/11/19 06:12:49;;;;;;;;;;;-1.30;99.90;;;;;;5093499;28;19926;-64
2022/11/19 06:15:15;;;;;;;;;;;-1.20;99.90;;;;;;5091255;28;19924;-64
2022/11/19 06:17:40;;;;;;;;;;;-1.30;99.90;;;;;;5124410;27;19973;-63
2022/11/19 06:20:07;;;;;;;;;;;-1.30;99.90;;;;;;5111809;27;19928;-63
2022/11/19 06:22:33;;;;;;;;;;;-1.30;99.90;;;;;;5093274;28;19924;-64
2022/11/19 06:24:59;;;;;;;;;;;-1.30;99.90;;;;;;5092661;28;20397;-64
2022/11/19 06:27:24;;;;;;;;;;;-1.30;99.90;;;;;;5097663;28;20014;-63
2022/11/19 06:29:50;;;;;;;;;;;-1.30;99.90;;;;;;5082275;28;20454;-64
2022/11/19 06:32:15;;;;;;;;;;;-1.40;99.90;;;;;;5093646;28;19919;-63
2022/11/19 06:34:41;;;;;;;;;;;-1.40;99.90;;;;;;5094518;28;20006;-63
2022/11/19 06:37:07;;;;;;;;;;;-1.40;99.90;;;;;;5088991;28;19932;-63
2022/11/19 06:39:32;;;;;;;;;;;-1.40;99.90;;;;;;5088934;28;20105;-64
2022/11/19 06:42:34;;;;;;;;;;;-1.40;99.90;;;;;;5122288;27;19931;-64
2022/11/19 06:44:43;;;;;;;;;;;-1.40;99.90;;;;;;5089824;28;19924;-63
2022/11/19 06:47:09;;;;;;;;;;;-1.40;99.90;;;;;;5090988;28;19965;-65
2022/11/19 06:49:34;;;;;;;;;;;-1.40;99.90;;;;;;5090139;28;19955;-64
2022/11/19 06:52:00;;;;;;;;;;;-1.40;99.90;;;;;;5091488;28;20011;-64
2022/11/19 06:54:25;;;;;;;;;;;-1.50;99.90;;;;;;5097528;27;20626;-63
2022/11/19 06:56:50;;;;;;;;;;;-1.40;99.90;;;;;;5090551;27;19946;-64
2022/11/19 06:59:16;;;;;;;;;;;-1.40;99.90;;;;;;5092757;27;19924;-65
2022/11/19 07:01:41;;;;;;;;;;;-1.40;99.90;;;;;;5093249;28;20019;-65
2022/11/19 07:04:07;;;;;;;;;;;-1.50;99.90;;;;;;5087450;28;19931;-63
2022/11/19 07:06:32;;;;;;;;;;;-1.50;99.90;;;;;;5093182;27;19928;-63
2022/11/19 07:08:58;;;;;;;;;;;-1.50;99.90;;;;;;5094106;27;20408;-64
2022/11/19 07:11:26;;;;;;;;;;;-1.50;99.90;;;;;;5090562;27;19935;-64
2022/11/19 07:13:58;;;;;;;;;;;-1.50;99.90;;;;;;5094001;27;19988;-66
2022/11/19 07:16:25;;;;;;;;;;;-1.50;99.90;;;;;;5083525;28;19975;-65
2022/11/19 07:18:50;;;;;;;;;;;-1.50;99.90;;;;;;5132295;27;19923;-64
2022/11/19 07:21:16;;;;;;;;;;;-1.40;99.90;;;;;;5102224;27;19930;-64
2022/11/19 07:23:41;;;;;;;;;;;-1.40;99.90;;;;;;5098649;28;19919;-65
2022/11/19 07:26:07;;;;;;;;;;;-1.40;99.90;;;;;;5094833;27;19976;-65
2022/11/19 07:28:35;;;;;;;;;;;-1.40;99.90;;;;;;5100549;27;19961;-65
2022/11/19 07:31:04;;;;;;;;;;;-1.40;99.90;;;;;;5098536;27;19946;-65
2022/11/19 07:33:30;;;;;;;;;;;-1.40;99.90;;;;;;5097489;27;19919;-64
2022/11/19 07:35:55;;;;;;;;;;;-1.40;99.90;;;;;;5101527;28;19930;-62
2022/11/19 07:38:20;;;;;;;;;;;-1.40;99.90;;;;;;5098446;27;20023;-64
2022/11/19 07:40:53;;;;;;;;;;;-1.40;99.90;;;;;;5115259;27;20522;-64
2022/11/19 07:43:18;;;;;;;;;;;-1.40;99.90;;;;;;5088321;27;19920;-64
2022/11/19 07:45:44;;;;;;;;;;;-1.40;99.90;;;;;;5094036;27;20540;-64
2022/11/19 07:48:09;;;;;;;;;;;-1.40;99.90;;;;;;5094069;28;19927;-63
2022/11/19 07:50:35;;;;;;;;;;;-1.40;99.90;;;;;;5099660;27;20309;-65
2022/11/19 07:53:01;;;;;;;;;;;-1.30;99.90;;;;;;5096019;28;19920;-64
2022/11/19 07:55:27;;;;;;;;;;;-1.30;99.90;;;;;;5101737;27;19965;-64
2022/11/19 07:57:52;;;;;;;;;;;-1.30;99.90;;;;;;5094170;27;20559;-64
2022/11/19 08:00:18;;;;;;;;;;;-1.30;99.90;;;;;;5096326;28;20336;-65
2022/11/19 08:02:43;;;;;;;;;;;-1.30;99.90;;;;;;5089463;27;19920;-65
2022/11/19 08:05:09;;;;;;;;;;;-1.20;99.90;;;;;;5092562;27;20390;-65
2022/11/19 08:07:38;;;;;;;;;;;-1.20;99.90;;;;;;5090325;27;19928;-65
2022/11/19 08:10:05;;;;;;;;;;;-1.20;99.90;;;;;;5109558;27;20316;-64
2022/11/19 08:12:31;;;;;;;;;;;-1.20;99.90;;;;;;5075277;28;19989;-62
2022/11/19 08:14:57;;;;;;;;;;;-1.10;99.90;;;;;;5076538;28;20371;-64
2022/11/19 08:20:07;;;;;;;;;;;-1.10;99.90;;;;;;5077195;28;19934;-64
2022/11/19 08:22:34;;;;;;;;;;;-1.10;99.90;;;;;;5078225;28;19924;-64
2022/11/19 08:25:00;;;;;;;;;;;-1.00;99.90;;;;;;5093726;28;20356;-63
2022/11/19 08:27:25;;;;;;;;;;;-1.00;99.90;;;;;;5080924;28;20022;-63
2022/11/19 08:29:51;;;;;;;;;;;-1.00;99.90;;;;;;5075748;28;19967;-65
2022/11/19 08:32:16;;;;;;;;;;;-0.90;99.90;;;;;;5083935;27;19951;-64
2022/11/19 08:34:42;;;;;;;;;;;-0.90;99.90;;;;;;5075954;28;20274;-65
2022/11/19 08:37:07;;;;;;;;;;;-0.90;99.90;;;;;;5094394;27;20060;-63
2022/11/19 08:39:33;;;;;;;;;;;-0.80;99.90;;;;;;5116163;27;19928;-63
2022/11/19 08:44:42;;;;;;;;;;;-0.80;99.90;;;;;;5081516;27;19977;-64
2022/11/19 08:47:08;;;;;;;;;;;-0.80;99.90;;;;;;5080752;28;19923;-65
2022/11/19 08:49:33;;;;;;;;;;;-0.80;99.90;;;;;;5080165;28;19978;-65
2022/11/19 08:51:59;;;;;;;;;;;-0.70;99.90;;;;;;5081661;28;19928;-64
2022/11/19 08:54:24;;;;;;;;;;;-0.70;99.90;;;;;;5102970;27;19924;-65
2022/11/19 08:56:50;;;;;;;;;;;-0.70;99.90;;;;;;5084128;28;19955;-64
2022/11/19 08:59:15;;;;;;;;;;;-0.60;99.90;;;;;;5078943;28;19924;-64
2022/11/19 09:01:41;;;;;;;;;;;-0.60;99.90;;;;;;5079373;27;19924;-64
2022/11/19 09:04:06;;;;;;;;;;;-0.60;99.90;;;;;;5100909;28;19920;-64
2022/11/19 09:06:35;;;;;;;;;;;-0.50;99.90;;;;;;5080889;28;19969;-64
2022/11/19 09:09:01;;;;;;;;;;;-0.50;99.90;;;;;;5086089;28;20389;-64
2022/11/19 09:11:26;;;;;;;;;;;-0.40;99.90;;;;;;5095325;28;20066;-64
2022/11/19 09:13:52;;;;;;;;;;;-0.40;99.90;;;;;;5127701;27;20018;-63
2022/11/19 09:16:17;;;;;;;;;;;-0.40;99.90;;;;;;5096336;28;19919;-64
2022/11/19 09:18:43;;;;;;;;;;;-0.30;99.90;;;;;;5092819;28;19923;-64
2022/11/19 09:21:09;;;;;;;;;;;-0.30;99.90;;;;;;5100986;28;20397;-64
2022/11/19 09:23:35;;;;;;;;;;;-0.20;99.90;;;;;;5096677;27;20071;-64
2022/11/19 09:26:05;;;;;;;;;;;-0.20;99.90;;;;;;5101803;27;19956;-63
2022/11/19 09:28:30;;;;;;;;;;;-0.10;99.90;;;;;;5080826;28;19924;-63
2022/11/19 09:31:06;;;;;;;;;;;-0.10;99.90;;;;;;5109000;28;19942;-63
2022/11/19 09:33:33;;;;;;;;;;;0.00;99.90;;;;;;5100302;28;20086;-64
2022/11/19 09:35:59;;;;;;;;;;;0.00;99.90;;;;;;5112398;27;19928;-63
2022/11/19 09:38:24;;;;;;;;;;;0.10;99.90;;;;;;5105294;28;19932;-64
2022/11/19 09:40:52;;;;;;;;;;;0.20;99.90;;;;;;5125117;27;19920;-63
2022/11/19 09:43:30;;;;;;;;;;;0.20;99.90;;;;;;5106159;28;19924;-63
2022/11/19 09:45:56;;;;;;;;;;;0.20;99.90;;;;;;5104354;28;19928;-64
2022/11/19 09:48:31;;;;;;;;;;;0.30;99.90;;;;;;5103576;28;20382;-64
2022/11/19 09:50:59;;;;;;;;;;;0.40;99.90;;;;;;5123483;27;19924;-63
2022/11/19 09:53:29;;;;;;;;;;;0.50;99.90;;;;;;5097626;28;19966;-64
2022/11/19 09:55:55;;;;;;;;;;;0.50;99.90;;;;;;5099802;28;20396;-64
2022/11/19 09:58:24;;;;;;;;;;;0.60;99.90;;;;;;5094077;28;19932;-64
2022/11/19 10:00:49;;;;;;;;;;;0.60;99.90;;;;;;5117069;27;19921;-64
2022/11/19 10:03:18;;;;;;;;;;;0.70;99.90;;;;;;5092212;28;19965;-64
2022/11/19 10:05:53;;;;;;;;;;;0.80;99.90;;;;;;5092972;28;19968;-64
2022/11/19 10:08:31;;;;;;;;;;;0.80;99.90;;;;;;5124049;27;19919;-64
2022/11/19 10:11:08;;;;;;;;;;;0.90;99.90;;;;;;5100353;28;20270;-62
2022/11/19 10:13:43;;;;;;;;;;;0.90;99.90;;;;;;5126995;27;19931;-63
2022/11/19 10:16:15;;;;;;;;;;;1.00;99.90;;;;;;5095445;28;20007;-62
2022/11/19 10:18:50;;;;;;;;;;;1.00;99.90;;;;;;5092593;28;20076;-69
2022/11/19 10:21:28;;;;;;;;;;;1.00;99.90;;;;;;5095066;28;20408;-68
2022/11/19 10:24:16;;;;;;;;;;;1.10;99.90;;;;;;5130948;27;19927;-69
2022/11/19 10:26:44;;;;;;;;;;;1.10;99.90;;;;;;5093003;28;19924;-70
2022/11/19 10:29:13;;;;;;;;;;;1.20;99.90;;;;;;5098847;27;19934;-65
2022/11/19 10:31:42;;;;;;;;;;;1.30;99.90;;;;;;5105427;28;19919;-66
2022/11/19 10:34:26;;;;;;;;;;;1.30;99.90;;;;;;5095378;27;19927;-67
2022/11/19 10:37:06;;;;;;;;;;;1.30;99.90;;;;;;5099588;27;19927;-66
2022/11/19 10:39:37;;;;;;;;;;;1.40;99.90;;;;;;5108375;28;19924;-67
2022/11/19 10:42:18;;;;;;;;;;;1.40;99.90;;;;;;5105899;28;19999;-65
2022/11/19 10:45:02;;;;;;;;;;;1.40;99.90;;;;;;5092844;28;19923;-67
2022/11/19 10:47:28;;;;;;;;;;;1.40;99.90;;;;;;5105711;28;19927;-65
2022/11/19 10:49:54;;;;;;;;;;;1.40;99.90;;;;;;5145220;27;19969;-67
2022/11/19 10:52:26;;;;;;;;;;;1.50;99.90;;;;;;5100273;27;20016;-67
2022/11/19 10:54:54;;;;;;;;;;;1.50;99.90;;;;;;5102208;28;19930;-67
2022/11/19 10:57:20;;;;;;;;;;;1.50;99.90;;;;;;5139247;27;19924;-66
2022/11/19 10:59:46;;;;;;;;;;;1.60;99.90;;;;;;5097426;28;19920;-67
2022/11/19 11:02:25;;;;;;;;;;;1.60;99.90;;;;;;5094641;28;20016;-66
2022/11/19 11:04:59;;;;;;;;;;;1.60;99.90;;;;;;5130257;27;20373;-66
2022/11/19 11:07:43;;;;;;;;;;;1.70;99.90;;;;;;5096728;27;19935;-68
2022/11/19 11:10:28;;;;;;;;;;;1.70;99.90;;;;;;5096146;28;19935;-67
2022/11/19 11:15:44;;;;;;;;;;;1.70;99.90;;;;;;5099890;27;20333;-67
2022/11/19 11:18:10;;;;;;;;;;;1.80;99.90;;;;;;5085810;28;20067;-66
2022/11/19 11:20:37;;;;;;;;;;;1.80;99.90;;;;;;5112136;28;19920;-66
2022/11/19 11:23:06;;;;;;;;;;;1.80;99.90;;;;;;5097019;28;19972;-66
2022/11/19 11:25:33;;;;;;;;;;;1.80;99.90;;;;;;5135084;27;19955;-68
2022/11/19 11:28:18;;;;;;;;;;;1.80;99.90;;;;;;5109834;28;19941;-66
2022/11/19 11:30:53;;;;;;;;;;;1.80;99.90;;;;;;5137121;27;19931;-67
2022/11/19 11:33:37;;;;;;;;;;;1.90;99.90;;;;;;5108580;28;19922;-65
2022/11/19 11:36:08;;;;;;;;;;;2.00;99.90;;;;;;5110906;28;19927;-66
2022/11/19 11:38:46;;;;;;;;;;;2.00;99.90;;;;;;5105674;28;19939;-66
2022/11/19 11:41:13;;;;;;;;;;;2.10;99.90;;;;;;5095048;28;20329;-66
2022/11/19 11:44:00;;;;;;;;;;;2.10;99.90;;;;;;5093949;27;19966;-66
2022/11/19 11:46:36;;;;;;;;;;;2.10;99.90;;;;;;5131286;27;20405;-68
2022/11/19 11:49:02;;;;;;;;;;;2.20;99.90;;;;;;5094327;28;20263;-66
2022/11/19 11:51:34;;;;;;;;;;;2.20;99.90;;;;;;5094625;28;19938;-66
2022/11/19 11:54:15;;;;;;;;;;;2.20;99.90;;;;;;5105785;28;20372;-67
2022/11/19 11:56:40;;;;;;;;;;;2.20;99.90;;;;;;5102566;28;19920;-66
2022/11/19 11:59:14;;;;;;;;;;;2.20;99.90;;;;;;5108897;28;19923;-65
2022/11/19 12:01:40;;;;;;;;;;;2.30;99.90;;;;;;5107448;28;20393;-65
2022/11/19 12:04:10;;;;;;;;;;;2.30;99.90;;;;;;5127356;27;20034;-65
2022/11/19 12:06:41;;;;;;;;;;;2.30;99.90;;;;;;5102432;28;19924;-65
2022/11/19 12:09:07;;;;;;;;;;;2.30;99.90;;;;;;5144016;27;19927;-65
2022/11/19 12:11:54;;;;;;;;;;;2.30;99.90;;;;;;5110197;28;20281;-64
2022/11/19 12:14:26;;;;;;;;;;;2.30;99.90;;;;;;5101127;27;19920;-64
2022/11/19 12:17:01;;;;;;;;;;;2.30;99.90;;;;;;5092950;27;19920;-66
2022/11/19 12:19:40;;;;;;;;;;;2.40;99.90;;;;;;5107812;28;19935;-65
2022/11/19 12:22:13;;;;;;;;;;;2.40;99.90;;;;;;5104659;28;19920;-65
2022/11/19 12:24:57;;;;;;;;;;;2.40;99.90;;;;;;5106101;28;19920;-65
2022/11/19 12:27:29;;;;;;;;;;;2.40;99.90;;;;;;5101237;28;19942;-67
2022/11/19 12:30:04;;;;;;;;;;;2.40;99.90;;;;;;5107580;28;19920;-67
2022/11/19 12:32:41;;;;;;;;;;;2.40;99.90;;;;;;5104518;28;19920;-65
2022/11/19 12:35:10;;;;;;;;;;;2.40;99.90;;;;;;5125594;27;20018;-64
2022/11/19 12:37:43;;;;;;;;;;;2.40;99.90;;;;;;5099224;28;19927;-64
2022/11/19 12:40:22;;;;;;;;;;;2.40;99.90;;;;;;5100455;28;19920;-65
2022/11/19 12:42:54;;;;;;;;;;;2.40;99.90;;;;;;5102748;28;19920;-67
2022/11/19 12:45:29;;;;;;;;;;;2.40;99.90;;;;;;5105232;28;19967;-65
2022/11/19 12:47:54;;;;;;;;;;;2.40;99.90;;;;;;5106191;28;19926;-67
2022/11/19 12:50:34;;;;;;;;;;;2.40;99.90;;;;;;5110267;28;20006;-65
2022/11/19 12:53:05;;;;;;;;;;;2.40;99.90;;;;;;5140481;27;19997;-66
2022/11/19 12:55:40;;;;;;;;;;;2.40;99.90;;;;;;5111479;28;20021;-64
2022/11/19 12:58:25;;;;;;;;;;;2.40;99.90;;;;;;5100861;27;19986;-64
2022/11/19 13:00:54;;;;;;;;;;;2.40;99.90;;;;;;5105504;28;19963;-67
2022/11/19 13:03:24;;;;;;;;;;;2.40;99.90;;;;;;5106198;28;20013;-67
2022/11/19 13:05:55;;;;;;;;;;;2.40;99.90;;;;;;5115336;27;20386;-67
2022/11/19 13:08:41;;;;;;;;;;;2.40;99.90;;;;;;5096976;27;19919;-66
2022/11/19 13:11:15;;;;;;;;;;;2.40;99.90;;;;;;5092470;27;19924;-66
2022/11/19 13:13:44;;;;;;;;;;;2.40;99.90;;;;;;5100142;28;20417;-66
2022/11/19 13:16:11;;;;;;;;;;;2.40;99.90;;;;;;5098882;28;19926;-66
2022/11/19 13:18:37;;;;;;;;;;;2.40;99.90;;;;;;5126743;27;20026;-65
2022/11/19 13:21:27;;;;;;;;;;;2.40;99.90;;;;;;5098568;27;20057;-66
2022/11/19 13:23:54;;;;;;;;;;;2.40;99.90;;;;;;5078730;27;19920;-67
2022/11/19 13:26:22;;;;;;;;;;;2.50;99.90;;;;;;5103310;28;19924;-65
2022/11/19 13:28:54;;;;;;;;;;;2.50;99.90;;;;;;5096061;28;19924;-65
2022/11/19 13:31:24;;;;;;;;;;;2.40;99.90;;;;;;5098247;27;19929;-64
2022/11/19 13:34:20;;;;;;;;;;;2.50;99.90;;;;;;5095405;27;20011;-64
2022/11/19 13:36:58;;;;;;;;;;;2.50;99.90;;;;;;5080724;28;20015;-65
2022/11/19 13:39:24;;;;;;;;;;;2.50;99.90;;;;;;5093428;28;19928;-65
2022/11/19 13:44:42;;;;;;;;;;;2.50;99.90;;;;;;5074184;28;20275;-66
2022/11/19 13:47:20;;;;;;;;;;;2.50;99.90;;;;;;5096146;28;20394;-67
2022/11/19 13:50:09;;;;;;;;;;;2.40;99.90;;;;;;5091705;28;19920;-66
2022/11/19 13:52:34;;;;;;;;;;;2.50;99.90;;;;;;5130696;27;19924;-65
2022/11/19 13:55:00;;;;;;;;;;;2.40;99.90;;;;;;5095988;28;19920;-65
2022/11/19 13:57:28;;;;;;;;;;;2.40;99.90;;;;;;5086860;28;20026;-65
2022/11/19 14:00:04;;;;;;;;;;;2.40;99.90;;;;;;5104247;28;19923;-65
2022/11/19 14:02:44;;;;;;;;;;;2.40;99.90;;;;;;5102388;27;20140;-65
2022/11/19 14:05:32;;;;;;;;;;;2.40;99.90;;;;;;5103473;27;19920;-65
2022/11/19 14:08:03;;;;;;;;;;;2.40;99.90;;;;;;5097376;28;20294;-65
2022/11/19 14:10:49;;;;;;;;;;;2.30;99.90;;;;;;5138126;27;20239;-64
2022/11/19 14:13:27;;;;;;;;;;;2.30;99.90;;;;;;5128245;27;19920;-65
2022/11/19 14:27:25;;;;;;;;;;;2.20;99.90;;;;;;5108858;27;20238;-65
2022/11/19 14:30:13;;;;;;;;;;;2.20;99.90;;;;;;5131352;27;20011;-65
2022/11/19 14:32:40;;;;;;;;;;;2.10;99.90;;;;;;5097054;27;19927;-65
2022/11/19 14:35:12;;;;;;;;;;;2.10;99.90;;;;;;5146406;27;19920;-65
2022/11/19 14:37:40;;;;;;;;;;;2.10;99.90;;;;;;5101214;28;19928;-61
2022/11/19 14:40:15;;;;;;;;;;;2.10;99.90;;;;;;5104383;27;20385;-61
2022/11/19 14:46:09;;;;;;;;;;;2.00;99.90;;;;;;5102657;28;19927;-61
2022/11/19 14:48:47;;;;;;;;;;;2.00;99.90;;;;;;5100438;27;19920;-61
2022/11/19 14:51:33;;;;;;;;;;;1.90;99.90;;;;;;5132307;27;19931;-61
2022/11/19 14:54:14;;;;;;;;;;;1.90;99.90;;;;;;5096425;27;19928;-61
2022/11/19 14:56:40;;;;;;;;;;;1.80;99.90;;;;;;5091651;27;19924;-61
2022/11/19 14:59:05;;;;;;;;;;;1.80;99.90;;;;;;5094726;27;21196;-61
2022/11/19 15:01:31;;;;;;;;;;;1.80;99.90;;;;;;5092527;27;20358;-61
2022/11/19 15:03:59;;;;;;;;;;;1.70;99.90;;;;;;5096930;27;19976;-61
2022/11/19 15:06:25;;;;;;;;;;;1.70;99.90;;;;;;5129917;27;19982;-61
2022/11/19 15:08:52;;;;;;;;;;;1.60;99.90;;;;;;5105150;27;19928;-61
2022/11/19 15:11:18;;;;;;;;;;;1.60;99.90;;;;;;5106486;27;19965;-61